sensor_id;sensor_type;location;lat;lon;timestamp;P1;durP1;ratioP1;P2;durP2;ratioP2
74100;SDS011;62462;52.530;21.682;2024-01-10T00:01:33;91.77;;;30.93;;
74100;SDS011;62462;52.530;21.682;2024-01-10T00:03:59;85.37;;;31.17;;
74100;SDS011;62462;52.530;21.682;2024-01-10T00:06:25;85.83;;;31.07;;
74100;SDS011;62462;52.530;21.682;2024-01-10T00:08:51;86.97;;;31.80;;
74100;SDS011;62462;52.530;21.682;2024-01-10T00:11:16;90.63;;;30.33;;
74100;SDS011;62462;52.530;21.682;2024-01-10T00:13:42;91.37;;;31.23;;
74100;SDS011;62462;52.530;21.682;2024-01-10T00:16:08;83.50;;;31.00;;
74100;SDS011;62462;52.530;21.682;2024-01-10T00:18:36;95.23;;;31.33;;
74100;SDS011;62462;52.530;21.682;2024-01-10T00:21:02;94.57;;;31.20;;
74100;SDS011;62462;52.530;21.682;2024-01-10T00:23:28;92.67;;;30.43;;
74100;SDS011;62462;52.530;21.682;2024-01-10T00:25:54;86.40;;;27.73;;
74100;SDS011;62462;52.530;21.682;2024-01-10T00:28:19;86.03;;;31.17;;
74100;SDS011;62462;52.530;21.682;2024-01-10T00:30:45;94.90;;;29.50;;
74100;SDS011;62462;52.530;21.682;2024-01-10T00:33:14;86.50;;;29.63;;
74100;SDS011;62462;52.530;21.682;2024-01-10T00:35:40;90.43;;;29.33;;
74100;SDS011;62462;52.530;21.682;2024-01-10T00:38:06;92.13;;;30.83;;
74100;SDS011;62462;52.530;21.682;2024-01-10T00:40:32;90.10;;;31.20;;
74100;SDS011;62462;52.530;21.682;2024-01-10T00:42:58;86.93;;;28.50;;
74100;SDS011;62462;52.530;21.682;2024-01-10T00:45:23;83.80;;;28.97;;
74100;SDS011;62462;52.530;21.682;2024-01-10T00:47:49;89.43;;;29.17;;
74100;SDS011;62462;52.530;21.682;2024-01-10T00:50:15;83.00;;;28.30;;
74100;SDS011;62462;52.530;21.682;2024-01-10T00:52:41;86.37;;;28.57;;
74100;SDS011;62462;52.530;21.682;2024-01-10T00:55:07;87.73;;;30.77;;
74100;SDS011;62462;52.530;21.682;2024-01-10T00:57:33;97.07;;;29.03;;
74100;SDS011;62462;52.530;21.682;2024-01-10T00:59:59;87.93;;;28.93;;
74100;SDS011;62462;52.530;21.682;2024-01-10T01:02:25;89.20;;;28.70;;
74100;SDS011;62462;52.530;21.682;2024-01-10T01:04:50;82.17;;;29.33;;
74100;SDS011;62462;52.530;21.682;2024-01-10T01:07:16;82.77;;;29.87;;
74100;SDS011;62462;52.530;21.682;2024-01-10T01:09:42;98.37;;;30.30;;
74100;SDS011;62462;52.530;21.682;2024-01-10T01:12:07;91.67;;;29.77;;
74100;SDS011;62462;52.530;21.682;2024-01-10T01:14:33;75.93;;;27.97;;
74100;SDS011;62462;52.530;21.682;2024-01-10T01:16:59;95.30;;;29.53;;
74100;SDS011;62462;52.530;21.682;2024-01-10T01:19:25;89.87;;;28.87;;
74100;SDS011;62462;52.530;21.682;2024-01-10T01:21:50;95.33;;;30.73;;
74100;SDS011;62462;52.530;21.682;2024-01-10T01:24:16;91.30;;;29.97;;
74100;SDS011;62462;52.530;21.682;2024-01-10T01:26:42;88.80;;;28.93;;
74100;SDS011;62462;52.530;21.682;2024-01-10T01:29:07;90.50;;;29.57;;
74100;SDS011;62462;52.530;21.682;2024-01-10T01:31:33;91.70;;;29.50;;
74100;SDS011;62462;52.530;21.682;2024-01-10T01:33:59;97.87;;;30.93;;
74100;SDS011;62462;52.530;21.682;2024-01-10T01:36:25;84.00;;;28.70;;
74100;SDS011;62462;52.530;21.682;2024-01-10T01:38:51;94.50;;;30.87;;
74100;SDS011;62462;52.530;21.682;2024-01-10T01:41:16;99.80;;;31.43;;
74100;SDS011;62462;52.530;21.682;2024-01-10T01:43:43;95.93;;;30.57;;
74100;SDS011;62462;52.530;21.682;2024-01-10T01:46:08;93.67;;;31.63;;
74100;SDS011;62462;52.530;21.682;2024-01-10T01:48:35;89.37;;;30.70;;
74100;SDS011;62462;52.530;21.682;2024-01-10T01:51:02;96.20;;;31.47;;
74100;SDS011;62462;52.530;21.682;2024-01-10T01:53:31;89.20;;;32.17;;
74100;SDS011;62462;52.530;21.682;2024-01-10T01:55:59;94.23;;;32.80;;
74100;SDS011;62462;52.530;21.682;2024-01-10T01:58:28;89.27;;;30.80;;
74100;SDS011;62462;52.530;21.682;2024-01-10T02:00:54;94.37;;;31.57;;
74100;SDS011;62462;52.530;21.682;2024-01-10T02:03:20;93.57;;;31.50;;
74100;SDS011;62462;52.530;21.682;2024-01-10T02:05:46;92.67;;;30.93;;
74100;SDS011;62462;52.530;21.682;2024-01-10T02:08:12;102.97;;;32.20;;
74100;SDS011;62462;52.530;21.682;2024-01-10T02:10:38;91.47;;;30.93;;
74100;SDS011;62462;52.530;21.682;2024-01-10T02:13:05;94.60;;;29.43;;
74100;SDS011;62462;52.530;21.682;2024-01-10T02:15:30;92.43;;;32.03;;
74100;SDS011;62462;52.530;21.682;2024-01-10T02:17:56;103.87;;;30.77;;
74100;SDS011;62462;52.530;21.682;2024-01-10T02:20:22;93.10;;;32.13;;
74100;SDS011;62462;52.530;21.682;2024-01-10T02:22:48;99.00;;;32.57;;
74100;SDS011;62462;52.530;21.682;2024-01-10T02:25:15;101.53;;;31.93;;
74100;SDS011;62462;52.530;21.682;2024-01-10T02:27:41;94.03;;;32.27;;
74100;SDS011;62462;52.530;21.682;2024-01-10T02:30:07;89.63;;;31.73;;
74100;SDS011;62462;52.530;21.682;2024-01-10T02:32:34;100.73;;;33.43;;
74100;SDS011;62462;52.530;21.682;2024-01-10T02:35:00;95.60;;;33.07;;
74100;SDS011;62462;52.530;21.682;2024-01-10T02:37:26;98.93;;;32.70;;
74100;SDS011;62462;52.530;21.682;2024-01-10T02:39:52;94.73;;;31.97;;
74100;SDS011;62462;52.530;21.682;2024-01-10T02:42:17;101.37;;;31.80;;
74100;SDS011;62462;52.530;21.682;2024-01-10T02:44:43;86.50;;;30.07;;
74100;SDS011;62462;52.530;21.682;2024-01-10T02:47:11;87.23;;;30.00;;
74100;SDS011;62462;52.530;21.682;2024-01-10T02:49:37;90.23;;;30.93;;
74100;SDS011;62462;52.530;21.682;2024-01-10T02:52:04;87.03;;;30.70;;
74100;SDS011;62462;52.530;21.682;2024-01-10T02:54:30;105.13;;;32.40;;
74100;SDS011;62462;52.530;21.682;2024-01-10T02:56:56;98.10;;;32.67;;
74100;SDS011;62462;52.530;21.682;2024-01-10T02:59:21;89.03;;;31.73;;
74100;SDS011;62462;52.530;21.682;2024-01-10T03:01:47;98.37;;;32.20;;
74100;SDS011;62462;52.530;21.682;2024-01-10T03:04:13;87.80;;;29.50;;
74100;SDS011;62462;52.530;21.682;2024-01-10T03:06:39;88.87;;;32.10;;
74100;SDS011;62462;52.530;21.682;2024-01-10T03:09:05;133.10;;;35.93;;
74100;SDS011;62462;52.530;21.682;2024-01-10T03:11:31;90.47;;;30.57;;
74100;SDS011;62462;52.530;21.682;2024-01-10T03:14:02;107.97;;;33.07;;
74100;SDS011;62462;52.530;21.682;2024-01-10T03:16:37;108.50;;;33.10;;
74100;SDS011;62462;52.530;21.682;2024-01-10T03:19:02;102.23;;;33.50;;
74100;SDS011;62462;52.530;21.682;2024-01-10T03:21:28;96.43;;;33.07;;
74100;SDS011;62462;52.530;21.682;2024-01-10T03:23:57;99.43;;;31.53;;
74100;SDS011;62462;52.530;21.682;2024-01-10T03:26:24;103.97;;;31.50;;
74100;SDS011;62462;52.530;21.682;2024-01-10T03:28:50;109.10;;;34.93;;
74100;SDS011;62462;52.530;21.682;2024-01-10T03:31:16;93.23;;;31.87;;
74100;SDS011;62462;52.530;21.682;2024-01-10T03:33:42;107.63;;;32.47;;
74100;SDS011;62462;52.530;21.682;2024-01-10T03:36:11;103.10;;;31.93;;
74100;SDS011;62462;52.530;21.682;2024-01-10T03:38:41;91.60;;;29.85;;
74100;SDS011;62462;52.530;21.682;2024-01-10T03:41:15;95.03;;;30.60;;
74100;SDS011;62462;52.530;21.682;2024-01-10T03:43:41;93.90;;;30.50;;
74100;SDS011;62462;52.530;21.682;2024-01-10T03:46:07;92.50;;;31.50;;
74100;SDS011;62462;52.530;21.682;2024-01-10T03:48:34;97.80;;;33.60;;
74100;SDS011;62462;52.530;21.682;2024-01-10T03:50:59;93.10;;;30.30;;
74100;SDS011;62462;52.530;21.682;2024-01-10T03:53:25;95.07;;;31.47;;
74100;SDS011;62462;52.530;21.682;2024-01-10T03:55:51;95.67;;;32.30;;
74100;SDS011;62462;52.530;21.682;2024-01-10T03:58:17;91.33;;;30.03;;
74100;SDS011;62462;52.530;21.682;2024-01-10T04:00:43;102.70;;;32.20;;
74100;SDS011;62462;52.530;21.682;2024-01-10T04:03:08;98.70;;;33.27;;
74100;SDS011;62462;52.530;21.682;2024-01-10T04:05:34;90.70;;;30.57;;
74100;SDS011;62462;52.530;21.682;2024-01-10T04:08:00;99.83;;;31.80;;
74100;SDS011;62462;52.530;21.682;2024-01-10T04:10:25;89.27;;;31.47;;
74100;SDS011;62462;52.530;21.682;2024-01-10T04:12:51;89.37;;;32.27;;
74100;SDS011;62462;52.530;21.682;2024-01-10T04:15:17;95.77;;;31.73;;
74100;SDS011;62462;52.530;21.682;2024-01-10T04:17:43;94.43;;;30.53;;
74100;SDS011;62462;52.530;21.682;2024-01-10T04:20:09;105.40;;;32.67;;
74100;SDS011;62462;52.530;21.682;2024-01-10T04:22:35;107.47;;;34.20;;
74100;SDS011;62462;52.530;21.682;2024-01-10T04:25:01;92.93;;;33.00;;
74100;SDS011;62462;52.530;21.682;2024-01-10T04:27:30;100.13;;;32.90;;
74100;SDS011;62462;52.530;21.682;2024-01-10T04:29:56;103.17;;;33.27;;
74100;SDS011;62462;52.530;21.682;2024-01-10T04:32:21;97.90;;;32.43;;
74100;SDS011;62462;52.530;21.682;2024-01-10T04:34:47;102.50;;;34.00;;
74100;SDS011;62462;52.530;21.682;2024-01-10T04:37:13;96.87;;;31.53;;
74100;SDS011;62462;52.530;21.682;2024-01-10T04:39:39;89.53;;;31.00;;
74100;SDS011;62462;52.530;21.682;2024-01-10T04:42:05;89.13;;;30.43;;
74100;SDS011;62462;52.530;21.682;2024-01-10T04:44:32;87.87;;;31.03;;
74100;SDS011;62462;52.530;21.682;2024-01-10T04:46:57;99.97;;;35.23;;
74100;SDS011;62462;52.530;21.682;2024-01-10T04:49:23;91.20;;;31.20;;
74100;SDS011;62462;52.530;21.682;2024-01-10T04:51:49;85.40;;;29.97;;
74100;SDS011;62462;52.530;21.682;2024-01-10T04:54:16;93.90;;;31.83;;
74100;SDS011;62462;52.530;21.682;2024-01-10T04:56:42;99.00;;;32.93;;
74100;SDS011;62462;52.530;21.682;2024-01-10T04:59:07;83.73;;;30.07;;
74100;SDS011;62462;52.530;21.682;2024-01-10T05:01:33;94.07;;;30.80;;
74100;SDS011;62462;52.530;21.682;2024-01-10T05:03:59;96.90;;;32.57;;
74100;SDS011;62462;52.530;21.682;2024-01-10T05:06:25;100.03;;;31.57;;
74100;SDS011;62462;52.530;21.682;2024-01-10T05:08:51;100.83;;;31.27;;
74100;SDS011;62462;52.530;21.682;2024-01-10T05:11:16;99.13;;;32.13;;
74100;SDS011;62462;52.530;21.682;2024-01-10T05:13:42;93.73;;;32.77;;
74100;SDS011;62462;52.530;21.682;2024-01-10T05:16:08;93.37;;;32.20;;
74100;SDS011;62462;52.530;21.682;2024-01-10T05:18:34;98.77;;;31.53;;
74100;SDS011;62462;52.530;21.682;2024-01-10T05:21:00;101.73;;;32.33;;
74100;SDS011;62462;52.530;21.682;2024-01-10T05:23:26;95.37;;;30.87;;
74100;SDS011;62462;52.530;21.682;2024-01-10T05:25:53;98.97;;;31.00;;
74100;SDS011;62462;52.530;21.682;2024-01-10T05:28:19;101.27;;;31.63;;
74100;SDS011;62462;52.530;21.682;2024-01-10T05:30:45;83.53;;;31.70;;
74100;SDS011;62462;52.530;21.682;2024-01-10T05:33:10;101.30;;;33.90;;
74100;SDS011;62462;52.530;21.682;2024-01-10T05:35:38;95.47;;;33.50;;
74100;SDS011;62462;52.530;21.682;2024-01-10T05:38:04;103.90;;;32.40;;
74100;SDS011;62462;52.530;21.682;2024-01-10T05:40:29;98.83;;;33.00;;
74100;SDS011;62462;52.530;21.682;2024-01-10T05:42:56;92.03;;;30.57;;
74100;SDS011;62462;52.530;21.682;2024-01-10T05:45:23;94.40;;;31.90;;
74100;SDS011;62462;52.530;21.682;2024-01-10T05:47:48;97.00;;;31.63;;
74100;SDS011;62462;52.530;21.682;2024-01-10T05:50:14;93.90;;;31.00;;
74100;SDS011;62462;52.530;21.682;2024-01-10T05:52:40;95.30;;;31.43;;
74100;SDS011;62462;52.530;21.682;2024-01-10T05:55:06;99.50;;;31.50;;
74100;SDS011;62462;52.530;21.682;2024-01-10T05:57:34;90.67;;;29.30;;
74100;SDS011;62462;52.530;21.682;2024-01-10T06:00:00;96.93;;;31.77;;
74100;SDS011;62462;52.530;21.682;2024-01-10T06:02:26;105.80;;;34.30;;
74100;SDS011;62462;52.530;21.682;2024-01-10T06:04:52;83.60;;;29.77;;
74100;SDS011;62462;52.530;21.682;2024-01-10T06:07:18;91.80;;;32.03;;
74100;SDS011;62462;52.530;21.682;2024-01-10T06:09:45;88.60;;;31.37;;
74100;SDS011;62462;52.530;21.682;2024-01-10T06:12:12;102.70;;;33.57;;
74100;SDS011;62462;52.530;21.682;2024-01-10T06:14:38;102.20;;;32.70;;
74100;SDS011;62462;52.530;21.682;2024-01-10T06:17:04;99.43;;;32.93;;
74100;SDS011;62462;52.530;21.682;2024-01-10T06:19:31;95.60;;;33.20;;
74100;SDS011;62462;52.530;21.682;2024-01-10T06:21:57;95.43;;;31.97;;
74100;SDS011;62462;52.530;21.682;2024-01-10T06:24:26;94.67;;;31.50;;
74100;SDS011;62462;52.530;21.682;2024-01-10T06:26:51;97.10;;;33.07;;
74100;SDS011;62462;52.530;21.682;2024-01-10T06:29:18;108.70;;;33.17;;
74100;SDS011;62462;52.530;21.682;2024-01-10T06:31:44;114.47;;;34.27;;
74100;SDS011;62462;52.530;21.682;2024-01-10T06:34:09;99.43;;;32.30;;
74100;SDS011;62462;52.530;21.682;2024-01-10T06:36:35;94.40;;;33.03;;
74100;SDS011;62462;52.530;21.682;2024-01-10T06:39:01;102.40;;;31.73;;
74100;SDS011;62462;52.530;21.682;2024-01-10T06:41:27;95.00;;;31.83;;
74100;SDS011;62462;52.530;21.682;2024-01-10T06:43:53;99.37;;;33.60;;
74100;SDS011;62462;52.530;21.682;2024-01-10T06:46:19;100.63;;;33.27;;
74100;SDS011;62462;52.530;21.682;2024-01-10T06:48:46;99.47;;;31.63;;
74100;SDS011;62462;52.530;21.682;2024-01-10T06:51:12;98.73;;;31.30;;
74100;SDS011;62462;52.530;21.682;2024-01-10T06:53:39;95.43;;;33.10;;
74100;SDS011;62462;52.530;21.682;2024-01-10T06:56:05;110.40;;;34.43;;
74100;SDS011;62462;52.530;21.682;2024-01-10T06:58:31;106.83;;;35.33;;
74100;SDS011;62462;52.530;21.682;2024-01-10T07:00:58;95.47;;;34.33;;
74100;SDS011;62462;52.530;21.682;2024-01-10T07:03:25;98.03;;;34.70;;
74100;SDS011;62462;52.530;21.682;2024-01-10T07:05:51;111.27;;;36.13;;
74100;SDS011;62462;52.530;21.682;2024-01-10T07:08:17;103.07;;;34.50;;
74100;SDS011;62462;52.530;21.682;2024-01-10T07:10:43;117.00;;;34.40;;
74100;SDS011;62462;52.530;21.682;2024-01-10T07:13:09;98.60;;;33.10;;
74100;SDS011;62462;52.530;21.682;2024-01-10T07:15:36;102.97;;;34.47;;
74100;SDS011;62462;52.530;21.682;2024-01-10T07:18:03;104.70;;;34.20;;
74100;SDS011;62462;52.530;21.682;2024-01-10T07:20:29;108.93;;;36.23;;
74100;SDS011;62462;52.530;21.682;2024-01-10T07:22:55;115.93;;;33.83;;
74100;SDS011;62462;52.530;21.682;2024-01-10T07:25:21;108.00;;;35.77;;
74100;SDS011;62462;52.530;21.682;2024-01-10T07:27:50;103.90;;;33.40;;
74100;SDS011;62462;52.530;21.682;2024-01-10T07:30:16;118.63;;;37.03;;
74100;SDS011;62462;52.530;21.682;2024-01-10T07:32:43;102.80;;;33.47;;
74100;SDS011;62462;52.530;21.682;2024-01-10T07:35:09;115.60;;;37.23;;
74100;SDS011;62462;52.530;21.682;2024-01-10T07:37:42;99.73;;;35.60;;
74100;SDS011;62462;52.530;21.682;2024-01-10T07:40:08;112.90;;;34.30;;
74100;SDS011;62462;52.530;21.682;2024-01-10T07:42:36;98.47;;;32.23;;
74100;SDS011;62462;52.530;21.682;2024-01-10T07:45:03;98.00;;;33.10;;
74100;SDS011;62462;52.530;21.682;2024-01-10T07:47:32;106.33;;;34.70;;
74100;SDS011;62462;52.530;21.682;2024-01-10T07:50:08;96.87;;;33.80;;
74100;SDS011;62462;52.530;21.682;2024-01-10T07:52:37;102.80;;;32.23;;
74100;SDS011;62462;52.530;21.682;2024-01-10T07:55:03;111.27;;;34.17;;
74100;SDS011;62462;52.530;21.682;2024-01-10T07:57:33;116.23;;;34.30;;
74100;SDS011;62462;52.530;21.682;2024-01-10T07:59:59;119.23;;;34.90;;
74100;SDS011;62462;52.530;21.682;2024-01-10T08:02:25;115.17;;;35.07;;
74100;SDS011;62462;52.530;21.682;2024-01-10T08:04:51;110.43;;;33.43;;
74100;SDS011;62462;52.530;21.682;2024-01-10T08:07:17;111.93;;;33.50;;
74100;SDS011;62462;52.530;21.682;2024-01-10T08:09:44;108.73;;;34.23;;
74100;SDS011;62462;52.530;21.682;2024-01-10T08:12:10;99.87;;;31.83;;
74100;SDS011;62462;52.530;21.682;2024-01-10T08:14:37;116.97;;;34.40;;
74100;SDS011;62462;52.530;21.682;2024-01-10T08:17:03;109.53;;;34.67;;
74100;SDS011;62462;52.530;21.682;2024-01-10T08:19:29;109.43;;;33.33;;
74100;SDS011;62462;52.530;21.682;2024-01-10T08:21:54;102.00;;;32.40;;
74100;SDS011;62462;52.530;21.682;2024-01-10T08:24:21;106.87;;;34.67;;
74100;SDS011;62462;52.530;21.682;2024-01-10T08:26:47;108.50;;;34.80;;
74100;SDS011;62462;52.530;21.682;2024-01-10T08:29:20;102.33;;;32.47;;
74100;SDS011;62462;52.530;21.682;2024-01-10T08:31:46;111.87;;;33.57;;
74100;SDS011;62462;52.530;21.682;2024-01-10T08:34:12;106.17;;;32.57;;
74100;SDS011;62462;52.530;21.682;2024-01-10T08:36:38;109.43;;;33.83;;
74100;SDS011;62462;52.530;21.682;2024-01-10T08:39:04;106.97;;;33.47;;
74100;SDS011;62462;52.530;21.682;2024-01-10T08:41:30;113.00;;;35.13;;
74100;SDS011;62462;52.530;21.682;2024-01-10T08:43:56;108.50;;;32.97;;
74100;SDS011;62462;52.530;21.682;2024-01-10T08:46:22;107.07;;;32.37;;
74100;SDS011;62462;52.530;21.682;2024-01-10T08:48:49;114.10;;;35.63;;
74100;SDS011;62462;52.530;21.682;2024-01-10T08:51:15;100.07;;;31.73;;
74100;SDS011;62462;52.530;21.682;2024-01-10T08:53:42;115.10;;;32.60;;
74100;SDS011;62462;52.530;21.682;2024-01-10T08:56:08;95.33;;;29.97;;
74100;SDS011;62462;52.530;21.682;2024-01-10T08:58:35;100.23;;;30.57;;
74100;SDS011;62462;52.530;21.682;2024-01-10T09:01:01;111.87;;;29.27;;
74100;SDS011;62462;52.530;21.682;2024-01-10T09:03:29;101.87;;;29.70;;
74100;SDS011;62462;52.530;21.682;2024-01-10T09:05:55;94.20;;;28.33;;
74100;SDS011;62462;52.530;21.682;2024-01-10T09:08:20;92.23;;;27.67;;
74100;SDS011;62462;52.530;21.682;2024-01-10T09:10:47;92.77;;;29.10;;
74100;SDS011;62462;52.530;21.682;2024-01-10T09:13:14;94.97;;;28.73;;
74100;SDS011;62462;52.530;21.682;2024-01-10T09:15:40;86.93;;;28.03;;
74100;SDS011;62462;52.530;21.682;2024-01-10T09:18:06;95.23;;;30.40;;
74100;SDS011;62462;52.530;21.682;2024-01-10T09:20:32;91.73;;;28.60;;
74100;SDS011;62462;52.530;21.682;2024-01-10T09:22:58;103.07;;;31.40;;
74100;SDS011;62462;52.530;21.682;2024-01-10T09:25:25;104.83;;;30.63;;
74100;SDS011;62462;52.530;21.682;2024-01-10T09:27:51;99.83;;;30.97;;
74100;SDS011;62462;52.530;21.682;2024-01-10T09:30:17;101.00;;;30.20;;
74100;SDS011;62462;52.530;21.682;2024-01-10T09:32:43;103.57;;;32.33;;
74100;SDS011;62462;52.530;21.682;2024-01-10T09:35:10;111.67;;;31.03;;
74100;SDS011;62462;52.530;21.682;2024-01-10T09:37:36;109.70;;;31.43;;
74100;SDS011;62462;52.530;21.682;2024-01-10T09:40:02;101.57;;;30.57;;
74100;SDS011;62462;52.530;21.682;2024-01-10T09:42:28;105.50;;;31.67;;
74100;SDS011;62462;52.530;21.682;2024-01-10T09:44:56;103.60;;;30.90;;
74100;SDS011;62462;52.530;21.682;2024-01-10T09:47:23;101.60;;;29.70;;
74100;SDS011;62462;52.530;21.682;2024-01-10T09:49:50;91.20;;;28.73;;
74100;SDS011;62462;52.530;21.682;2024-01-10T09:52:22;96.30;;;29.10;;
74100;SDS011;62462;52.530;21.682;2024-01-10T09:54:55;97.27;;;29.30;;
74100;SDS011;62462;52.530;21.682;2024-01-10T09:57:25;99.03;;;29.83;;
74100;SDS011;62462;52.530;21.682;2024-01-10T09:59:51;114.33;;;31.77;;
74100;SDS011;62462;52.530;21.682;2024-01-10T10:02:21;98.67;;;29.00;;
74100;SDS011;62462;52.530;21.682;2024-01-10T10:04:56;97.90;;;29.30;;
74100;SDS011;62462;52.530;21.682;2024-01-10T10:07:47;103.07;;;29.73;;
74100;SDS011;62462;52.530;21.682;2024-01-10T10:10:14;103.57;;;29.37;;
74100;SDS011;62462;52.530;21.682;2024-01-10T10:12:41;104.43;;;29.93;;
74100;SDS011;62462;52.530;21.682;2024-01-10T10:15:15;107.50;;;29.87;;
74100;SDS011;62462;52.530;21.682;2024-01-10T10:17:43;105.67;;;29.13;;
74100;SDS011;62462;52.530;21.682;2024-01-10T10:20:34;96.27;;;27.53;;
74100;SDS011;62462;52.530;21.682;2024-01-10T10:25:42;86.47;;;26.07;;
74100;SDS011;62462;52.530;21.682;2024-01-10T10:28:08;89.47;;;25.27;;
74100;SDS011;62462;52.530;21.682;2024-01-10T10:30:34;91.00;;;27.30;;
74100;SDS011;62462;52.530;21.682;2024-01-10T10:33:01;90.87;;;27.23;;
74100;SDS011;62462;52.530;21.682;2024-01-10T10:35:27;87.13;;;24.87;;
74100;SDS011;62462;52.530;21.682;2024-01-10T10:37:53;90.73;;;26.37;;
74100;SDS011;62462;52.530;21.682;2024-01-10T10:40:19;78.33;;;24.37;;
74100;SDS011;62462;52.530;21.682;2024-01-10T10:42:56;76.20;;;25.47;;
74100;SDS011;62462;52.530;21.682;2024-01-10T10:45:23;84.70;;;25.87;;
74100;SDS011;62462;52.530;21.682;2024-01-10T10:47:56;85.37;;;25.63;;
74100;SDS011;62462;52.530;21.682;2024-01-10T10:50:24;80.37;;;24.97;;
74100;SDS011;62462;52.530;21.682;2024-01-10T10:52:52;91.37;;;26.27;;
74100;SDS011;62462;52.530;21.682;2024-01-10T10:55:21;84.23;;;26.03;;
74100;SDS011;62462;52.530;21.682;2024-01-10T10:57:48;82.03;;;24.90;;
74100;SDS011;62462;52.530;21.682;2024-01-10T11:00:16;84.13;;;25.80;;
74100;SDS011;62462;52.530;21.682;2024-01-10T11:02:44;81.37;;;23.73;;
74100;SDS011;62462;52.530;21.682;2024-01-10T11:05:10;76.60;;;22.00;;
74100;SDS011;62462;52.530;21.682;2024-01-10T11:07:40;67.10;;;21.97;;
74100;SDS011;62462;52.530;21.682;2024-01-10T11:10:18;78.33;;;24.23;;
74100;SDS011;62462;52.530;21.682;2024-01-10T11:24:06;56.67;;;15.63;;
74100;SDS011;62462;52.530;21.682;2024-01-10T11:26:34;48.57;;;15.50;;
74100;SDS011;62462;52.530;21.682;2024-01-10T11:29:04;49.80;;;16.40;;
74100;SDS011;62462;52.530;21.682;2024-01-10T11:31:30;49.13;;;18.77;;
74100;SDS011;62462;52.530;21.682;2024-01-10T11:33:57;52.70;;;17.50;;
74100;SDS011;62462;52.530;21.682;2024-01-10T11:36:27;57.27;;;18.23;;
74100;SDS011;62462;52.530;21.682;2024-01-10T11:46:42;61.00;;;19.83;;
74100;SDS011;62462;52.530;21.682;2024-01-10T11:49:12;62.10;;;17.80;;
74100;SDS011;62462;52.530;21.682;2024-01-10T11:51:43;58.37;;;19.03;;
74100;SDS011;62462;52.530;21.682;2024-01-10T11:54:38;60.63;;;19.27;;
74100;SDS011;62462;52.530;21.682;2024-01-10T11:59:51;60.30;;;19.80;;
74100;SDS011;62462;52.530;21.682;2024-01-10T12:02:18;55.37;;;18.73;;
74100;SDS011;62462;52.530;21.682;2024-01-10T12:04:44;53.03;;;18.30;;
74100;SDS011;62462;52.530;21.682;2024-01-10T12:07:11;57.63;;;17.47;;
74100;SDS011;62462;52.530;21.682;2024-01-10T12:09:37;59.67;;;19.40;;
74100;SDS011;62462;52.530;21.682;2024-01-10T12:12:03;58.40;;;19.80;;
74100;SDS011;62462;52.530;21.682;2024-01-10T12:14:29;57.57;;;19.37;;
74100;SDS011;62462;52.530;21.682;2024-01-10T12:16:58;59.03;;;19.53;;
74100;SDS011;62462;52.530;21.682;2024-01-10T12:19:25;60.00;;;21.33;;
74100;SDS011;62462;52.530;21.682;2024-01-10T12:21:51;58.17;;;20.47;;
74100;SDS011;62462;52.530;21.682;2024-01-10T12:24:17;61.47;;;20.77;;
74100;SDS011;62462;52.530;21.682;2024-01-10T12:26:44;65.10;;;20.17;;
74100;SDS011;62462;52.530;21.682;2024-01-10T12:29:11;58.63;;;21.10;;
74100;SDS011;62462;52.530;21.682;2024-01-10T12:31:37;55.83;;;19.10;;
74100;SDS011;62462;52.530;21.682;2024-01-10T12:34:09;55.30;;;18.80;;
74100;SDS011;62462;52.530;21.682;2024-01-10T12:36:35;53.97;;;20.37;;
74100;SDS011;62462;52.530;21.682;2024-01-10T12:39:01;62.73;;;21.17;;
74100;SDS011;62462;52.530;21.682;2024-01-10T12:41:27;62.47;;;20.90;;
74100;SDS011;62462;52.530;21.682;2024-01-10T12:43:53;62.83;;;21.60;;
74100;SDS011;62462;52.530;21.682;2024-01-10T12:46:20;66.07;;;22.20;;
74100;SDS011;62462;52.530;21.682;2024-01-10T12:48:58;61.40;;;19.97;;
74100;SDS011;62462;52.530;21.682;2024-01-10T12:51:28;65.63;;;23.57;;
74100;SDS011;62462;52.530;21.682;2024-01-10T12:53:55;65.50;;;20.87;;
74100;SDS011;62462;52.530;21.682;2024-01-10T12:56:23;60.83;;;20.67;;
74100;SDS011;62462;52.530;21.682;2024-01-10T12:58:49;64.77;;;20.63;;
74100;SDS011;62462;52.530;21.682;2024-01-10T13:01:15;71.23;;;23.83;;
74100;SDS011;62462;52.530;21.682;2024-01-10T13:03:41;67.47;;;22.73;;
74100;SDS011;62462;52.530;21.682;2024-01-10T13:06:07;71.43;;;23.03;;
74100;SDS011;62462;52.530;21.682;2024-01-10T13:08:34;65.70;;;20.73;;
74100;SDS011;62462;52.530;21.682;2024-01-10T13:11:00;68.50;;;23.07;;
74100;SDS011;62462;52.530;21.682;2024-01-10T13:13:26;72.77;;;21.97;;
74100;SDS011;62462;52.530;21.682;2024-01-10T13:15:51;70.50;;;22.43;;
74100;SDS011;62462;52.530;21.682;2024-01-10T13:18:18;71.17;;;24.27;;
74100;SDS011;62462;52.530;21.682;2024-01-10T13:20:44;69.50;;;22.70;;
74100;SDS011;62462;52.530;21.682;2024-01-10T13:23:10;73.30;;;23.80;;
74100;SDS011;62462;52.530;21.682;2024-01-10T13:25:36;73.57;;;23.10;;
74100;SDS011;62462;52.530;21.682;2024-01-10T13:28:05;72.57;;;23.23;;
74100;SDS011;62462;52.530;21.682;2024-01-10T13:30:31;74.73;;;24.27;;
74100;SDS011;62462;52.530;21.682;2024-01-10T13:32:57;77.90;;;25.10;;
74100;SDS011;62462;52.530;21.682;2024-01-10T13:35:27;78.33;;;24.07;;
74100;SDS011;62462;52.530;21.682;2024-01-10T13:37:52;80.03;;;25.10;;
74100;SDS011;62462;52.530;21.682;2024-01-10T13:40:18;73.03;;;25.03;;
74100;SDS011;62462;52.530;21.682;2024-01-10T13:42:48;78.43;;;23.03;;
74100;SDS011;62462;52.530;21.682;2024-01-10T13:45:15;75.17;;;23.83;;
74100;SDS011;62462;52.530;21.682;2024-01-10T13:47:42;65.70;;;22.97;;
74100;SDS011;62462;52.530;21.682;2024-01-10T13:50:08;76.50;;;23.97;;
74100;SDS011;62462;52.530;21.682;2024-01-10T13:52:35;77.73;;;24.13;;
74100;SDS011;62462;52.530;21.682;2024-01-10T13:55:01;74.37;;;23.80;;
74100;SDS011;62462;52.530;21.682;2024-01-10T13:57:29;71.43;;;22.47;;
74100;SDS011;62462;52.530;21.682;2024-01-10T13:59:57;103.43;;;28.60;;
74100;SDS011;62462;52.530;21.682;2024-01-10T14:02:23;76.23;;;25.03;;
74100;SDS011;62462;52.530;21.682;2024-01-10T14:04:49;103.53;;;33.73;;
74100;SDS011;62462;52.530;21.682;2024-01-10T14:07:16;95.93;;;29.97;;
74100;SDS011;62462;52.530;21.682;2024-01-10T14:09:42;72.40;;;25.87;;
74100;SDS011;62462;52.530;21.682;2024-01-10T14:12:08;90.40;;;33.07;;
74100;SDS011;62462;52.530;21.682;2024-01-10T14:14:34;82.30;;;29.63;;
74100;SDS011;62462;52.530;21.682;2024-01-10T14:16:59;102.27;;;35.00;;
74100;SDS011;62462;52.530;21.682;2024-01-10T14:19:25;88.60;;;28.17;;
74100;SDS011;62462;52.530;21.682;2024-01-10T14:21:51;97.23;;;30.57;;
74100;SDS011;62462;52.530;21.682;2024-01-10T14:24:17;79.77;;;26.90;;
74100;SDS011;62462;52.530;21.682;2024-01-10T14:26:43;80.83;;;26.63;;
74100;SDS011;62462;52.530;21.682;2024-01-10T14:29:09;94.33;;;33.30;;